Strona główna
METAR-TAF:

METAR-TAF

Lotnisko :

Harry Clever Field

New Philadelphia, Ohio, Stany Zjednoczone

Szerokość geograficzna: 40-28-19N, Długość geograficzna: 081-25-25W, wysokość: 272 m

Aktualna obserwacja pogody

Raport powstał 28 minut temu, godzina 18:53 UTC
Wiatr 5 kt od południowy zachód
Temperatura 30°C
Wilgotność 59%
Ciśnienie 1015 hPa
Widzialność: 16.1 km
Mało chmury na wysokości 4100 ft
Mało chmury na wysokości 4900 ft

METAR: KPHD 181853Z AUTO 23005KT 10SM FEW041 FEW049 30/21 A2998 RMK AO2 SLP144 T03000211

czas: 15:21 (19:21 UTC)


TAF: brakujący

Obserwacja i prognoza pogody dla ponad 4000 lotnisk (raport METAR i TAF).

Dostępne stacje oznaczono żółtymi i czerwonymi punktami na mapie.

Najedź kursorem aby zobaczyć nazwę stacji.

Kliknij aby zobaczyć obserwacje i prognozy pogody.

Aby zmienić mapę: kliknij na zielony przycisk z czarnym krzyżykiem, aby powiększyć; na zielony przycisk z myślnikiem, aby pomniejszyć; na zielone strzałki, aby przejść do map sąsiednich.


METAR-TAF: